Time;durP1;ratioP1;P1;durP2;ratioP2;P2;SDS_P1;SDS_P2;PMS_P1;PMS_P2;Temp;Humidity;BMP_temperature;BMP_pressure;BME280_temperature;BME280_humidity;BME280_pressure;Samples;Min_cycle;Max_cycle;Signal;HPM_P1;HPM_P2
2022/05/24 00:00:51;;;;;;;28.73;15.57;;;;;;;15.86;100.00;99762.38;5068144;28;20160;-74
2022/05/24 00:03:19;;;;;;;30.38;16.35;;;;;;;15.85;100.00;99758.00;5070393;28;20134;-75
2022/05/24 00:05:48;;;;;;;28.05;16.65;;;;;;;15.85;100.00;99763.59;5077538;28;20048;-74
2022/05/24 00:08:15;;;;;;;10.32;4.70;;;;;;;15.83;100.00;99766.06;5077667;28;20044;-75
2022/05/24 00:10:42;;;;;;;34.70;19.30;;;;;;;15.91;100.00;99765.34;5082379;28;20122;-76
2022/05/24 00:13:10;;;;;;;17.15;7.80;;;;;;;15.78;100.00;99750.69;5071407;28;20135;-75
2022/05/24 00:15:36;;;;;;;33.20;20.65;;;;;;;15.93;100.00;99759.31;5076171;28;20060;-75
2022/05/24 00:18:13;;;;;;;17.45;8.73;;;;;;;15.88;100.00;99757.09;5079054;28;20150;-75
2022/05/24 00:20:53;;;;;;;23.67;13.80;;;;;;;15.88;100.00;99757.09;5077762;28;20049;-74
2022/05/24 00:23:22;;;;;;;30.67;15.88;;;;;;;15.84;100.00;99759.25;5076299;28;20048;-74
2022/05/24 00:25:52;;;;;;;16.75;9.43;;;;;;;15.79;100.00;99762.66;5076558;28;20127;-76
2022/05/24 00:28:21;;;;;;;34.67;18.77;;;;;;;15.86;100.00;99760.34;5082745;28;20050;-77
2022/05/24 00:30:49;;;;;;;40.83;20.85;;;;;;;15.87;100.00;99761.94;5079158;28;20467;-73
2022/05/24 00:33:16;;;;;;;25.65;13.07;;;;;;;15.84;100.00;99756.47;5071216;28;20408;-74
2022/05/24 00:35:44;;;;;;;34.33;18.02;;;;;;;15.87;100.00;99763.94;5077745;28;20524;-74
2022/05/24 00:38:13;;;;;;;17.45;9.23;;;;;;;15.86;100.00;99759.59;5082333;28;20278;-75
2022/05/24 00:40:56;;;;;;;29.25;12.80;;;;;;;15.91;100.00;99759.00;5076375;28;20044;-73
2022/05/24 00:43:23;;;;;;;34.92;20.70;;;;;;;15.91;100.00;99756.19;5089859;28;20084;-75
2022/05/24 00:45:53;;;;;;;37.83;21.95;;;;;;;15.94;100.00;99756.06;5084474;28;20051;-75
2022/05/24 00:48:37;;;;;;;16.33;5.72;;;;;;;15.89;100.00;99753.09;5081562;28;20052;-74
2022/05/24 00:51:06;;;;;;;15.60;7.43;;;;;;;15.87;100.00;99755.56;5086735;28;20549;-74
2022/05/24 00:53:41;;;;;;;21.90;10.55;;;;;;;15.87;100.00;99739.63;5075569;28;20040;-74
2022/05/24 00:56:15;;;;;;;16.77;8.65;;;;;;;15.91;100.00;99753.41;5083626;28;20044;-75
2022/05/24 00:58:48;;;;;;;36.25;20.77;;;;;;;16.00;100.00;99742.31;5073559;28;20056;-75
2022/05/24 01:01:42;;;;;;;35.13;17.80;;;;;;;15.90;100.00;99743.50;5079207;28;20054;-74
2022/05/24 01:04:11;;;;;;;36.35;20.33;;;;;;;16.00;100.00;99736.72;5078171;28;20044;-73
2022/05/24 01:06:39;;;;;;;19.45;9.68;;;;;;;15.86;100.00;99745.66;5081676;28;20048;-75
2022/05/24 01:09:13;;;;;;;37.53;20.75;;;;;;;15.95;100.00;99746.47;5084605;28;20048;-74
2022/05/24 01:11:45;;;;;;;27.27;11.45;;;;;;;15.89;100.00;99731.53;5074385;28;20048;-75
2022/05/24 01:14:15;;;;;;;34.70;19.92;;;;;;;15.93;100.00;99718.22;5083587;28;20101;-74
2022/05/24 01:16:42;;;;;;;24.48;12.93;;;;;;;15.92;100.00;99722.28;5082542;28;20048;-75
2022/05/24 01:19:16;;;;;;;24.70;12.35;;;;;;;15.89;100.00;99728.00;5080639;28;20085;-76
2022/05/24 01:21:43;;;;;;;36.07;19.50;;;;;;;15.91;100.00;99728.31;5082171;28;20487;-74
2022/05/24 01:24:25;;;;;;;18.60;9.82;;;;;;;15.84;100.00;99734.16;5078817;28;20568;-74
2022/05/24 01:26:56;;;;;;;12.60;5.80;;;;;;;15.78;100.00;99738.75;5080438;28;20055;-75
2022/05/24 01:29:25;;;;;;;11.45;4.95;;;;;;;15.77;100.00;99746.38;5082406;28;20045;-74
2022/05/24 01:37:27;;;;;;;24.17;12.52;;;;;;;15.59;100.00;99740.66;5080735;28;20051;-74
2022/05/24 01:39:57;;;;;;;32.20;14.45;;;;;;;15.63;100.00;99741.31;5080419;28;20056;-74
2022/05/24 01:42:26;;;;;;;25.92;13.05;;;;;;;15.61;100.00;99748.56;5078641;28;20484;-74
2022/05/24 01:45:05;;;;;;;31.38;13.57;;;;;;;15.55;100.00;99739.25;5087491;28;20075;-75
2022/05/24 01:47:33;;;;;;;36.45;19.48;;;;;;;15.57;100.00;99743.88;5084008;28;20416;-75
2022/05/24 01:50:06;;;;;;;30.15;13.27;;;;;;;15.55;100.00;99747.63;5077329;28;20097;-75
2022/05/24 01:52:54;;;;;;;22.90;10.95;;;;;;;15.54;100.00;99755.19;5070808;28;20511;-75
2022/05/24 01:55:33;;;;;;;37.35;21.08;;;;;;;15.61;100.00;99746.56;5082790;28;20134;-74
2022/05/24 01:58:04;;;;;;;35.25;18.65;;;;;;;15.61;100.00;99748.56;5078298;28;20050;-74
2022/05/24 02:00:31;;;;;;;29.75;14.48;;;;;;;15.57;100.00;99743.13;5076920;28;20056;-74
2022/05/24 02:02:57;;;;;;;29.08;15.23;;;;;;;15.58;100.00;99739.09;5069266;28;20131;-75
2022/05/24 02:05:37;;;;;;;30.27;15.93;;;;;;;15.52;100.00;99741.69;5068092;28;20110;-73
2022/05/24 02:08:07;;;;;;;35.92;20.58;;;;;;;15.64;100.00;99725.34;5079552;28;20072;-73
2022/05/24 02:10:45;;;;;;;39.42;21.23;;;;;;;15.65;100.00;99724.13;5074303;28;20052;-74
2022/05/24 02:13:17;;;;;;;33.42;18.52;;;;;;;15.63;100.00;99726.59;5068734;28;20135;-74
2022/05/24 02:15:48;;;;;;;33.42;17.40;;;;;;;15.59;100.00;99731.53;5078903;28;20040;-75
2022/05/24 02:18:18;;;;;;;20.52;10.50;;;;;;;15.56;100.00;99740.81;5074263;28;20082;-74
2022/05/24 02:20:45;;;;;;;32.85;18.92;;;;;;;15.61;100.00;99731.84;5070297;28;20045;-74
2022/05/24 02:23:14;;;;;;;32.58;17.13;;;;;;;15.58;100.00;99736.31;5074203;28;20131;-74
2022/05/24 02:25:58;;;;;;;33.17;16.70;;;;;;;15.56;100.00;99735.22;5084358;28;20060;-74
2022/05/24 02:28:29;;;;;;;33.65;17.38;;;;;;;15.56;100.00;99738.00;5078144;28;20466;-74
2022/05/24 02:31:00;;;;;;;30.67;16.55;;;;;;;15.57;100.00;99733.97;5079230;28;20128;-73
2022/05/24 02:33:27;;;;;;;32.95;19.38;;;;;;;15.61;100.00;99732.63;5075154;28;20102;-74
2022/05/24 02:35:54;;;;;;;22.85;9.80;;;;;;;15.51;100.00;99739.38;5081426;28;20170;-74
2022/05/24 02:38:21;;;;;;;38.30;18.83;;;;;;;15.59;100.00;99726.72;5084739;28;20066;-74
2022/05/24 02:43:33;;;;;;;26.60;11.35;;;;;;;15.56;100.00;99736.00;5081036;28;20048;-73
2022/05/24 02:46:00;;;;;;;32.63;16.27;;;;;;;15.57;100.00;99745.13;5079826;28;20488;-74
2022/05/24 02:48:28;;;;;;;19.63;9.23;;;;;;;15.52;100.00;99747.28;5075697;28;20055;-73
2022/05/24 02:50:55;;;;;;;32.53;17.38;;;;;;;15.55;100.00;99742.78;5070405;28;20814;-76
2022/05/24 02:53:22;;;;;;;14.70;6.95;;;;;;;15.49;100.00;99739.03;5071712;28;20068;-74
2022/05/24 02:55:48;;;;;;;27.08;14.45;;;;;;;15.57;100.00;99743.13;5082189;28;20087;-73
2022/05/24 02:58:16;;;;;;;24.75;11.02;;;;;;;15.49;100.00;99737.03;5078157;28;20158;-74
2022/05/24 03:00:43;;;;;;;14.40;6.57;;;;;;;15.49;100.00;99747.38;5075775;28;20842;-74
2022/05/24 03:03:10;;;;;;;17.88;8.95;;;;;;;15.53;100.00;99737.69;5075688;28;20055;-73
2022/05/24 03:05:37;;;;;;;20.05;8.88;;;;;;;15.46;100.00;99746.28;5073751;28;20071;-73
2022/05/24 03:10:48;;;;;;;24.02;12.73;;;;;;;15.50;100.00;99755.31;5070002;28;20040;-74
2022/05/24 03:16:09;;;;;;;12.60;5.67;;;;;;;15.46;100.00;99749.09;5068197;28;20055;-74
2022/05/24 03:18:36;;;;;;;20.92;9.05;;;;;;;15.48;100.00;99750.66;5079858;28;20349;-74
2022/05/24 03:21:03;;;;;;;18.55;7.85;;;;;;;15.48;100.00;99745.84;5085766;28;20098;-74
2022/05/24 03:23:29;;;;;;;18.27;7.78;;;;;;;15.47;100.00;99727.56;5067390;28;20056;-74
2022/05/24 03:25:56;;;;;;;31.13;17.13;;;;;;;15.55;100.00;99734.44;5072682;28;20048;-74
2022/05/24 03:28:23;;;;;;;28.85;10.45;;;;;;;15.45;100.00;99728.03;5068883;28;20063;-74
2022/05/24 03:30:49;;;;;;;30.45;16.05;;;;;;;15.52;100.00;99736.13;5079699;28;20124;-74
2022/05/24 03:33:17;;;;;;;26.75;8.90;;;;;;;15.50;100.00;99743.41;5074328;28;20072;-75
2022/05/24 03:35:43;;;;;;;24.23;10.10;;;;;;;15.38;100.00;99742.22;5074553;28;20428;-72
2022/05/24 03:38:10;;;;;;;16.95;8.50;;;;;;;15.45;100.00;99728.03;5079076;28;20050;-74
2022/05/24 03:40:36;;;;;;;23.92;12.23;;;;;;;15.46;100.00;99743.50;5077853;28;20120;-75
2022/05/24 03:43:09;;;;;;;28.55;14.50;;;;;;;15.50;100.00;99738.56;5076027;28;20044;-74
2022/05/24 03:45:35;;;;;;;24.70;11.63;;;;;;;15.36;100.00;99749.47;5085134;28;20425;-74
2022/05/24 03:48:02;;;;;;;21.55;10.57;;;;;;;15.18;100.00;99741.72;5082206;28;20052;-75
2022/05/24 03:50:29;;;;;;;16.45;7.05;;;;;;;15.18;100.00;99757.66;5083084;28;20497;-75
2022/05/24 03:52:55;;;;;;;12.82;5.10;;;;;;;15.20;100.00;99753.19;5078035;28;20052;-76
2022/05/24 03:55:22;;;;;;;23.52;10.73;;;;;;;15.27;100.00;99752.16;5078921;28;20151;-75
2022/05/24 03:58:01;;;;;;;19.30;8.27;;;;;;;15.25;100.00;99755.41;5080005;28;20155;-76
2022/05/24 04:00:30;;;;;;;21.35;8.50;;;;;;;15.19;100.00;99756.44;5066783;28;20045;-75
2022/05/24 04:02:57;;;;;;;16.58;7.65;;;;;;;15.13;100.00;99755.44;5078301;28;20210;-75
2022/05/24 04:05:24;;;;;;;22.55;6.97;;;;;;;15.05;100.00;99768.03;5075715;28;20083;-75
2022/05/24 04:07:51;;;;;;;8.15;3.42;;;;;;;14.98;100.00;99759.94;5080817;28;20052;-75
2022/05/24 04:10:17;;;;;;;16.75;7.13;;;;;;;15.04;100.00;99780.41;5072537;28;20083;-74
2022/05/24 04:12:44;;;;;;;4.68;2.22;;;;;;;14.92;100.00;99772.88;5071174;28;20131;-74
2022/05/24 04:15:11;;;;;;;21.67;8.65;;;;;;;14.97;100.00;99780.66;5072538;28;20102;-75
2022/05/24 04:17:38;;;;;;;13.68;4.70;;;;;;;14.91;100.00;99790.81;5072096;28;20402;-74
2022/05/24 04:20:06;;;;;;;9.95;3.83;;;;;;;14.75;100.00;99802.84;5083336;28;20131;-73
2022/05/24 04:22:33;;;;;;;13.82;6.28;;;;;;;14.87;100.00;99795.72;5079306;28;20114;-73
2022/05/24 04:25:00;;;;;;;21.30;7.72;;;;;;;14.88;100.00;99806.41;5083473;28;20048;-75
2022/05/24 04:27:27;;;;;;;3.20;1.80;;;;;;;14.82;100.00;99805.41;5078668;28;20065;-76
2022/05/24 04:29:54;;;;;;;7.18;3.25;;;;;;;14.73;100.00;99802.56;5077140;28;20048;-73
2022/05/24 04:32:21;;;;;;;13.48;3.70;;;;;;;14.75;100.00;99813.25;5078447;28;20049;-73
2022/05/24 04:34:48;;;;;;;15.07;5.43;;;;;;;14.84;100.00;99816.91;5079972;28;20051;-73
2022/05/24 04:37:16;;;;;;;12.13;5.70;;;;;;;14.86;100.00;99816.44;5084235;28;20070;-74
2022/05/24 04:39:42;;;;;;;18.35;7.63;;;;;;;14.86;100.00;99811.66;5080444;28;20053;-74
2022/05/24 04:42:19;;;;;;;11.05;2.97;;;;;;;14.84;100.00;99830.03;5086292;28;20059;-73
2022/05/24 04:44:57;;;;;;;21.58;6.38;;;;;;;14.90;100.00;99831.81;5071985;28;20102;-73
2022/05/24 04:47:28;;;;;;;16.60;3.83;;;;;;;14.82;100.00;99832.50;5078613;28;20082;-74
2022/05/24 04:49:58;;;;;;;10.48;4.13;;;;;;;14.90;100.00;99823.47;5079767;28;20140;-75
2022/05/24 04:52:28;;;;;;;13.20;4.35;;;;;;;14.90;100.00;99833.81;5070927;28;20109;-74
2022/05/24 04:54:55;;;;;;;10.10;2.72;;;;;;;14.84;100.00;99830.81;5089323;28;20043;-74
2022/05/24 04:57:22;;;;;;;12.50;4.45;;;;;;;14.82;100.00;99830.47;5079308;28;20131;-73
2022/05/24 04:59:49;;;;;;;9.82;3.50;;;;;;;14.90;100.00;99836.59;5075103;28;20556;-74
2022/05/24 05:02:19;;;;;;;16.75;7.07;;;;;;;14.93;100.00;99825.38;5078800;28;20056;-74
2022/05/24 05:04:46;;;;;;;5.97;2.47;;;;;;;14.93;100.00;99832.94;5077173;28;20520;-74
2022/05/24 05:07:15;;;;;;;12.20;2.97;;;;;;;14.89;100.00;99826.69;5079935;28;20051;-74
2022/05/24 05:09:43;;;;;;;16.15;4.22;;;;;;;14.90;100.00;99822.69;5090798;28;20139;-74
2022/05/24 05:12:10;;;;;;;10.43;4.03;;;;;;;14.87;100.00;99818.00;5088469;28;20164;-73
2022/05/24 05:14:39;;;;;;;14.65;5.55;;;;;;;14.88;100.00;99823.13;5079248;28;20081;-74
2022/05/24 05:17:06;;;;;;;16.67;5.28;;;;;;;14.88;100.00;99825.13;5084043;28;20054;-73
2022/05/24 05:19:32;;;;;;;19.05;6.35;;;;;;;14.95;100.00;99819.34;5080330;28;20048;-74
2022/05/24 05:22:02;;;;;;;5.35;2.45;;;;;;;14.80;100.00;99821.00;5069405;28;20055;-75
2022/05/24 05:24:29;;;;;;;3.88;1.75;;;;;;;14.80;100.00;99832.16;5074284;28;20127;-74
2022/05/24 05:26:56;;;;;;;6.32;2.65;;;;;;;14.86;100.00;99819.22;5072104;28;20147;-74
2022/05/24 05:32:08;;;;;;;12.87;3.83;;;;;;;14.87;100.00;99846.63;5071386;28;20044;-75
2022/05/24 05:34:34;;;;;;;6.95;2.88;;;;;;;14.81;100.00;99865.13;5079202;28;20306;-74
2022/05/24 05:37:05;;;;;;;15.48;4.40;;;;;;;14.87;100.00;99873.69;5081759;28;20083;-74
2022/05/24 05:39:31;;;;;;;13.02;4.75;;;;;;;14.80;100.00;99882.28;5070014;28;20139;-73
2022/05/24 05:41:58;;;;;;;13.73;6.13;;;;;;;14.82;100.00;99886.16;5077588;28;20044;-74
2022/05/24 05:44:24;;;;;;;9.77;3.47;;;;;;;14.82;100.00;99902.88;5080820;28;20040;-76
2022/05/24 05:46:51;;;;;;;15.30;5.63;;;;;;;14.84;100.00;99908.00;5082144;28;20163;-77
2022/05/24 05:49:17;;;;;;;9.10;2.33;;;;;;;14.74;100.00;99914.69;5071939;28;20449;-76
2022/05/24 05:51:44;;;;;;;13.18;3.60;;;;;;;14.78;100.00;99929.31;5074470;28;20041;-75
2022/05/24 05:54:11;;;;;;;13.55;4.72;;;;;;;14.83;100.00;99929.53;5083181;28;20044;-75
2022/05/24 05:56:40;;;;;;;13.75;4.82;;;;;;;14.77;100.00;99936.88;5084986;28;20124;-75
2022/05/24 05:59:07;;;;;;;10.82;2.58;;;;;;;14.64;100.00;99940.84;5079935;28;20127;-76
2022/05/24 06:01:34;;;;;;;5.88;2.30;;;;;;;14.54;100.00;99944.72;5071096;28;20159;-74
2022/05/24 06:04:01;;;;;;;10.75;3.13;;;;;;;14.47;100.00;99939.34;5081698;28;20051;-75
2022/05/24 06:06:32;;;;;;;13.23;4.25;;;;;;;14.36;100.00;99939.69;5079122;28;20086;-75
2022/05/24 06:08:59;;;;;;;6.15;1.67;;;;;;;14.33;100.00;99935.00;5074145;28;20130;-75
2022/05/24 06:11:25;;;;;;;11.60;3.30;;;;;;;14.21;100.00;99937.72;5071490;28;20527;-76
2022/05/24 06:13:52;;;;;;;21.85;5.43;;;;;;;14.27;100.00;99947.88;5076002;28;20048;-75
2022/05/24 06:16:19;;;;;;;16.80;5.85;;;;;;;14.26;100.00;99946.34;5089264;28;20079;-75
2022/05/24 06:18:45;;;;;;;9.57;3.50;;;;;;;14.09;100.00;99955.91;5076548;28;20048;-76
2022/05/24 06:21:12;;;;;;;11.02;4.22;;;;;;;14.12;100.00;99957.03;5086515;28;20068;-75
2022/05/24 06:23:39;;;;;;;5.50;2.70;;;;;;;14.05;100.00;99958.03;5083700;28;20465;-76
2022/05/24 06:26:05;;;;;;;10.38;3.60;;;;;;;13.95;100.00;99963.88;5079736;28;20055;-76
2022/05/24 06:28:32;;;;;;;9.00;3.55;;;;;;;13.85;100.00;99974.06;5084371;28;20044;-75
2022/05/24 06:30:58;;;;;;;13.98;3.80;;;;;;;13.92;100.00;99968.31;5090341;28;20087;-75
2022/05/24 06:33:25;;;;;;;5.07;2.15;;;;;;;13.92;100.00;99973.06;5089479;28;20070;-77
2022/05/24 06:35:52;;;;;;;7.28;2.92;;;;;;;13.79;100.00;99988.91;5087013;28;20044;-75
2022/05/24 06:38:19;;;;;;;12.30;3.75;;;;;;;13.88;100.00;99981.53;5082177;28;20080;-76
2022/05/24 06:40:46;;;;;;;7.05;2.28;;;;;;;13.78;100.00;99995.69;5070795;28;20056;-75
2022/05/24 06:43:14;;;;;;;11.25;4.13;;;;;;;13.84;100.00;99991.94;5079124;28;20048;-74
2022/05/24 06:45:41;;;;;;;16.13;3.88;;;;;;;13.69;100.00;99993.53;5086607;28;20054;-74
2022/05/24 06:48:10;;;;;;;5.88;2.25;;;;;;;13.69;100.00;99995.50;5083859;28;20047;-75
2022/05/24 06:50:38;;;;;;;5.10;2.72;;;;;;;13.64;100.00;100007.97;5079146;28;20413;-75
2022/05/24 06:53:05;;;;;;;12.25;4.18;;;;;;;13.66;100.00;100005.50;5096040;28;20052;-75
2022/05/24 06:55:32;;;;;;;4.97;2.03;;;;;;;13.57;100.00;100010.88;5080709;28;20582;-76
2022/05/24 06:57:58;;;;;;;8.20;2.85;;;;;;;13.48;100.00;100013.50;5079966;28;20100;-75
2022/05/24 07:03:15;;;;;;;13.40;4.40;;;;;;;13.51;100.00;100020.97;5067331;28;20424;-72
2022/05/24 07:05:43;;;;;;;8.38;2.72;;;;;;;13.43;100.00;100038.25;5076186;28;20054;-72
2022/05/24 07:08:10;;;;;;;16.25;4.30;;;;;;;13.46;100.00;100035.38;5085400;28;20101;-74
2022/05/24 07:10:38;;;;;;;8.52;2.97;;;;;;;13.50;100.00;100035.31;5075354;28;20044;-72
2022/05/24 07:13:09;;;;;;;13.45;3.08;;;;;;;13.41;100.00;100035.13;5071990;28;20072;-72
2022/05/24 07:15:37;;;;;;;9.70;3.08;;;;;;;13.47;100.00;100039.75;5087154;28;20519;-73
2022/05/24 07:18:04;;;;;;;2.55;1.40;;;;;;;13.37;100.00;100026.09;5078763;28;20055;-73
2022/05/24 07:20:36;;;;;;;10.90;3.95;;;;;;;13.46;100.00;100021.50;5083776;28;20062;-73
2022/05/24 07:23:12;;;;;;;6.45;1.85;;;;;;;13.45;100.00;100017.16;5073666;28;20056;-72
2022/05/24 07:25:41;;;;;;;12.93;4.35;;;;;;;13.49;100.00;100019.84;5084005;28;20433;-72
2022/05/24 07:28:09;;;;;;;4.25;1.48;;;;;;;13.45;100.00;100025.50;5069640;28;20586;-74
2022/05/24 07:30:36;;;;;;;6.68;2.20;;;;;;;13.51;100.00;100020.97;5075426;28;20048;-73
2022/05/24 07:33:02;;;;;;;5.15;2.00;;;;;;;13.50;100.00;100022.19;5075553;28;20597;-72
2022/05/24 07:35:29;;;;;;;12.43;3.22;;;;;;;13.54;100.00;100024.88;5079235;28;20872;-71
2022/05/24 07:37:55;;;;;;;9.43;3.08;;;;;;;13.62;100.00;100029.03;5083971;28;20144;-73
2022/05/24 07:46:01;;;;;;;12.40;2.95;;;;;;;13.83;100.00;100046.00;5090571;28;20134;-74
2022/05/24 07:48:29;;;;;;;19.00;3.80;;;;;;;13.84;100.00;100041.22;5083548;28;20055;-74
2022/05/24 07:50:56;;;;;;;12.40;4.25;;;;;;;14.00;100.00;100058.66;5078251;28;20155;-73
2022/05/24 07:53:22;;;;;;;6.15;2.58;;;;;;;14.01;100.00;100062.25;5082460;28;20133;-74
2022/05/24 07:55:49;;;;;;;9.35;3.03;;;;;;;14.00;100.00;100064.22;5102174;28;20122;-74
2022/05/24 07:58:15;;;;;;;8.68;3.88;;;;;;;13.89;100.00;100079.63;5082011;28;20052;-75
2022/05/24 08:00:42;;;;;;;8.07;2.42;;;;;;;14.04;100.00;100072.50;5087147;28;20131;-73
2022/05/24 08:03:09;;;;;;;5.97;2.00;;;;;;;14.18;100.00;100067.34;5078837;28;20052;-73
2022/05/24 08:05:36;;;;;;;7.38;2.53;;;;;;;14.21;100.00;100087.97;5084358;28;20774;-74
2022/05/24 08:08:04;;;;;;;6.47;2.30;;;;;;;14.18;100.00;100086.81;5080648;28;20063;-73
2022/05/24 08:10:32;;;;;;;8.18;3.25;;;;;;;14.15;100.00;100090.50;5087197;28;20055;-74
2022/05/24 08:13:01;;;;;;;8.15;3.00;;;;;;;14.33;100.00;100090.84;5074272;28;20071;-73
2022/05/24 08:15:30;;;;;;;7.25;3.05;;;;;;;14.33;100.00;100090.03;5090975;28;20040;-73
2022/05/24 08:17:56;;;;;;;11.68;4.45;;;;;;;14.41;100.00;100091.44;5087928;28;20048;-73
2022/05/24 08:20:25;;;;;;;4.65;3.10;;;;;;;14.61;100.00;100083.72;5081030;28;20420;-75
2022/05/24 08:22:52;;;;;;;7.30;3.03;;;;;;;14.63;100.00;100076.50;5090104;28;20044;-74
2022/05/24 08:25:19;;;;;;;9.77;3.80;;;;;;;14.64;100.00;100074.47;5095150;28;20163;-72
2022/05/24 08:27:45;;;;;;;8.32;3.17;;;;;;;14.80;100.00;100068.88;5085727;28;20563;-73
2022/05/24 08:30:14;;;;;;;9.00;2.72;;;;;;;14.80;100.00;100080.78;5086927;28;20728;-74
2022/05/24 08:32:41;;;;;;;8.95;3.42;;;;;;;14.89;100.00;100080.91;5079517;28;20565;-74
2022/05/24 08:35:10;;;;;;;10.15;2.63;;;;;;;15.15;100.00;100076.97;5084737;28;20047;-74
2022/05/24 08:37:38;;;;;;;11.73;3.55;;;;;;;15.28;100.00;100076.97;5088149;28;20131;-73
2022/05/24 08:40:06;;;;;;;2.78;1.55;;;;;;;15.41;100.00;100077.81;5082866;28;20143;-74
2022/05/24 08:42:35;;;;;;;6.70;3.30;;;;;;;15.31;100.00;100084.47;5074106;28;20040;-73
2022/05/24 08:48:23;;;;;;;8.75;2.55;;;;;;;15.33;100.00;100090.38;5085584;28;20554;-72
2022/05/24 08:50:51;;;;;;;5.60;1.98;;;;;;;15.52;100.00;100092.19;5077693;28;20045;-72
2022/05/24 08:53:28;;;;;;;7.05;3.15;;;;;;;15.68;100.00;100094.09;5083936;28;20186;-73
2022/05/24 08:55:56;;;;;;;7.28;2.50;;;;;;;15.73;100.00;100111.06;5082050;28;20464;-75
2022/05/24 08:58:31;;;;;;;8.77;3.25;;;;;;;15.65;100.00;100097.81;5077381;28;20080;-73
2022/05/24 09:00:57;;;;;;;5.07;2.55;;;;;;;15.68;100.00;100092.09;5085608;28;20143;-74
2022/05/24 09:03:25;;;;;;;4.18;1.42;;;;;;;15.88;100.00;100098.22;5082177;28;20139;-75
2022/05/24 09:06:13;;;;;;;10.70;2.85;;;;;;;15.85;100.00;100115.06;5079698;28;20044;-73
2022/05/24 09:09:01;;;;;;;2.97;2.00;;;;;;;15.73;99.46;100111.06;5084978;28;20161;-74
2022/05/24 09:11:45;;;;;;;5.22;1.80;;;;;;;15.65;100.00;100112.50;5073038;28;20132;-75
2022/05/24 09:14:41;;;;;;;4.00;1.40;;;;;;;15.72;100.00;100128.25;5072674;28;20084;-76
2022/05/24 09:17:26;;;;;;;5.45;2.72;;;;;;;15.42;100.00;100132.31;5071376;28;20067;-74
2022/05/24 09:19:53;;;;;;;6.87;2.97;;;;;;;15.60;100.00;100134.59;5063927;28;20291;-74
2022/05/24 09:22:22;;;;;;;3.15;1.80;;;;;;;15.50;100.00;100140.03;5066427;28;20408;-74
2022/05/24 09:25:00;;;;;;;4.65;1.60;;;;;;;15.53;100.00;100138.38;5062456;28;20052;-73
2022/05/24 09:27:30;;;;;;;6.97;2.95;;;;;;;15.83;100.00;100159.38;5076219;28;20495;-71
2022/05/24 09:30:04;;;;;;;9.93;2.60;;;;;;;16.02;100.00;100153.56;5074761;28;20460;-70
2022/05/24 09:32:43;;;;;;;5.32;2.15;;;;;;;16.27;100.00;100155.56;5069660;28;20158;-74
2022/05/24 09:35:12;;;;;;;1.27;0.75;;;;;;;16.40;100.00;100154.28;5069536;28;20112;-75
2022/05/24 09:37:42;;;;;;;8.82;2.63;;;;;;;16.28;100.00;100154.31;5082493;28;20135;-72
2022/05/24 09:40:23;;;;;;;6.93;2.72;;;;;;;16.40;100.00;100161.91;5069051;28;20171;-74
2022/05/24 09:42:50;;;;;;;8.70;2.33;;;;;;;16.42;98.83;100165.00;5066450;28;20461;-75
2022/05/24 09:45:23;;;;;;;13.25;3.05;;;;;;;16.37;96.59;100165.59;5070085;28;20131;-73
2022/05/24 09:47:52;;;;;;;6.78;2.72;;;;;;;16.71;98.08;100174.03;5071552;28;20459;-75
2022/05/24 09:50:37;;;;;;;6.85;1.90;;;;;;;16.66;95.81;100175.38;5070719;28;20053;-72
2022/05/24 09:53:19;;;;;;;12.63;2.60;;;;;;;16.42;95.59;100173.38;5072626;28;20054;-72
2022/05/24 09:55:45;;;;;;;6.80;2.08;;;;;;;16.30;96.27;100182.56;5078523;28;20544;-73
2022/05/24 09:58:20;;;;;;;6.53;2.20;;;;;;;16.02;96.78;100192.63;5080943;28;20131;-73
2022/05/24 10:01:07;;;;;;;7.25;1.90;;;;;;;15.91;98.59;100189.41;5067651;28;20044;-73
2022/05/24 10:03:38;;;;;;;6.28;1.63;;;;;;;15.95;97.87;100186.47;5077702;28;20470;-73
2022/05/24 10:06:10;;;;;;;3.88;1.75;;;;;;;15.94;98.51;100190.50;5054089;28;20048;-73
2022/05/24 10:08:51;;;;;;;3.92;1.40;;;;;;;15.84;100.00;100197.19;5060134;28;20049;-75
2022/05/24 10:11:43;;;;;;;3.55;1.92;;;;;;;15.82;100.00;100210.81;5055200;28;20053;-75
2022/05/24 10:14:16;;;;;;;7.45;1.60;;;;;;;15.95;100.00;100194.84;5055464;28;20052;-73
2022/05/24 10:16:43;;;;;;;5.85;1.88;;;;;;;16.02;100.00;100192.63;5065815;28;20966;-76
2022/05/24 10:19:12;;;;;;;5.13;1.10;;;;;;;16.43;100.00;100195.31;5069873;28;20062;-75
2022/05/24 10:21:45;;;;;;;4.90;1.83;;;;;;;16.56;97.98;100178.50;5081086;28;20049;-74
2022/05/24 10:24:23;;;;;;;7.97;1.83;;;;;;;16.94;97.95;100190.38;5077975;28;20054;-74
2022/05/24 10:27:05;;;;;;;4.10;1.65;;;;;;;17.24;95.51;100184.84;5068759;28;20490;-75
2022/05/24 10:29:50;;;;;;;5.53;1.85;;;;;;;17.20;88.57;100197.41;5060351;28;20443;-74
2022/05/24 10:38:28;;;;;;;2.97;1.73;;;;;;;17.50;80.98;100217.09;5075436;28;20540;-73
2022/05/24 10:41:15;;;;;;;2.35;1.23;;;;;;;17.79;75.07;100211.19;5089742;28;20139;-74
2022/05/24 10:43:44;;;;;;;4.20;1.42;;;;;;;17.88;72.18;100220.41;5087122;28;20159;-72
2022/05/24 10:46:16;;;;;;;1.73;1.15;;;;;;;17.84;70.56;100196.59;5074137;28;20048;-70
2022/05/24 10:49:16;;;;;;;5.68;1.38;;;;;;;18.30;72.77;100187.16;5079733;28;20051;-74
2022/05/24 10:51:52;;;;;;;3.53;1.33;;;;;;;18.36;67.18;100193.72;5071919;28;20155;-74
2022/05/24 10:54:58;;;;;;;2.08;0.80;;;;;;;18.59;66.01;100181.94;5076941;28;20058;-73
2022/05/24 10:57:38;;;;;;;0.85;0.85;;;;;;;18.44;64.12;100183.78;5057334;28;20056;-73
2022/05/24 11:00:19;;;;;;;7.97;1.80;;;;;;;18.53;67.72;100188.63;5057012;28;20060;-74
2022/05/24 11:02:49;;;;;;;1.13;0.73;;;;;;;18.40;62.79;100190.78;5073867;28;20131;-74
2022/05/24 11:05:23;;;;;;;2.40;1.08;;;;;;;17.96;67.42;100207.69;5071914;28;20504;-72
2022/05/24 11:07:57;;;;;;;4.53;1.40;;;;;;;17.87;69.65;100204.09;5075444;28;20051;-72
2022/05/24 11:10:39;;;;;;;3.95;1.15;;;;;;;17.80;69.97;100193.16;5062272;28;20048;-74
2022/05/24 11:13:12;;;;;;;1.15;0.57;;;;;;;17.78;70.57;100202.00;5074735;28;20078;-73
2022/05/24 11:15:53;;;;;;;3.72;1.55;;;;;;;17.72;71.76;100203.09;5075201;28;20124;-72
2022/05/24 11:18:31;;;;;;;3.78;1.00;;;;;;;17.67;70.86;100192.47;5075892;28;20553;-75
2022/05/24 11:21:06;;;;;;;5.22;1.52;;;;;;;17.73;72.10;100207.44;5090508;28;20129;-73
2022/05/24 11:23:46;;;;;;;2.25;0.70;;;;;;;17.79;70.53;100219.59;5077527;28;20051;-76
2022/05/24 11:26:21;;;;;;;5.05;1.48;;;;;;;17.73;71.46;100224.22;5070366;28;20058;-73
2022/05/24 11:28:53;;;;;;;2.22;0.68;;;;;;;17.75;69.51;100228.13;5077969;28;20190;-75
2022/05/24 11:31:28;;;;;;;5.45;1.55;;;;;;;18.01;67.64;100214.72;5071133;28;20139;-73
2022/05/24 11:33:57;;;;;;;2.05;0.82;;;;;;;17.94;67.00;100217.78;5073355;28;20147;-72
2022/05/24 11:37:20;;;;;;;0.30;0.30;;;;;;;17.72;61.56;100223.44;5070619;28;20110;-76
2022/05/24 11:39:47;;;;;;;1.83;0.95;;;;;;;17.84;63.44;100230.19;5037661;28;20132;-71
2022/05/24 11:42:34;;;;;;;2.80;1.50;;;;;;;17.80;63.90;100229.53;5075029;28;20041;-69
2022/05/24 11:45:29;;;;;;;1.58;0.70;;;;;;;18.16;63.26;100226.94;5074927;28;20052;-70
2022/05/24 11:47:55;;;;;;;3.85;0.77;;;;;;;18.44;60.60;100225.81;5073084;28;20137;-75
2022/05/24 11:50:31;;;;;;;3.45;1.30;;;;;;;18.42;62.33;100227.53;5078576;28;20136;-76
2022/05/24 11:53:05;;;;;;;1.45;0.93;;;;;;;18.30;59.47;100234.75;5085195;28;20087;-76
2022/05/24 11:55:46;;;;;;;0.80;0.70;;;;;;;18.33;60.93;100233.84;5075196;28;20044;-75
2022/05/24 11:58:21;;;;;;;6.88;1.65;;;;;;;18.31;57.65;100238.31;5073072;28;20044;-72
2022/05/24 12:01:15;;;;;;;3.30;0.75;;;;;;;18.31;59.33;100235.53;5086358;28;20052;-74
2022/05/24 12:10:10;;;;;;;3.15;1.25;;;;;;;18.75;54.84;100242.53;5075299;28;20140;-72
2022/05/24 12:12:55;;;;;;;6.25;1.48;;;;;;;18.57;56.56;100248.88;5085258;28;20052;-72
2022/05/24 12:15:31;;;;;;;2.72;1.13;;;;;;;18.59;57.39;100252.00;5081077;28;20148;-71